Airport View

Enter AWOS ICAO identifier for current METAR.

ex. KFNL

KMNE 251315Z AUTO 00000KT 10SM OVC021 19/17 A3003 RMK AO2 T01850165

25 Sep 2020 13:35

Frequency: 119.325

Phone: 318-371-7874

Other Area AWOS: KBAD - KDTN - KSHV - KRSN

TAF AMD KBAD 251141Z 2511/2616 00000KT 9999 OVC025 QNH2993INS BECMG 2518/2519 12005KT 9999 OVC030 QNH2992INS BECMG 2614/2615 15005KT 9999 SCT040 QNH2999INS TX27/2521Z TN17/2512Z